Time;durP1;ratioP1;P1;durP2;ratioP2;P2;SDS_P1;SDS_P2;PMS_P1;PMS_P2;Temp;Humidity;BMP_temperature;BMP_pressure;BME280_temperature;BME280_humidity;BME280_pressure;Samples;Min_cycle;Max_cycle;Signal;HPM_P1;HPM_P2
2021/08/08 00:00:57;;;;;;;3.80;1.85;;;17.30;99.90;;;;;;5012615;28;20037;-48
2021/08/08 00:03:22;;;;;;;4.30;1.83;;;17.30;99.90;;;;;;5013219;28;20022;-50
2021/08/08 00:05:48;;;;;;;2.83;1.60;;;17.20;99.90;;;;;;5012924;28;20050;-53
2021/08/08 00:08:14;;;;;;;3.00;1.88;;;17.30;99.90;;;;;;5012572;28;20041;-52
2021/08/08 00:10:40;;;;;;;1.88;1.50;;;17.20;99.90;;;;;;5013606;28;20081;-52
2021/08/08 00:13:06;;;;;;;7.47;1.67;;;17.20;99.90;;;;;;5014004;28;20033;-49
2021/08/08 00:15:31;;;;;;;2.63;1.35;;;17.20;99.90;;;;;;5013039;28;20026;-48
2021/08/08 00:17:57;;;;;;;1.40;1.30;;;17.20;99.90;;;;;;5012274;28;20030;-52
2021/08/08 00:20:22;;;;;;;4.30;1.70;;;17.10;99.90;;;;;;5012433;28;20030;-47
2021/08/08 00:22:48;;;;;;;1.98;1.10;;;17.10;99.90;;;;;;5012318;28;20030;-45
2021/08/08 00:25:14;;;;;;;2.17;1.65;;;17.10;99.90;;;;;;5012236;28;20088;-49
2021/08/08 00:27:39;;;;;;;2.95;1.55;;;17.10;99.90;;;;;;5012220;28;20101;-51
2021/08/08 00:30:07;;;;;;;1.33;0.98;;;17.20;99.90;;;;;;5012356;28;20026;-49
2021/08/08 00:32:33;;;;;;;2.08;1.15;;;17.20;99.90;;;;;;5012359;28;20022;-46
2021/08/08 00:34:58;;;;;;;1.58;1.30;;;17.20;99.90;;;;;;4994566;28;20117;-51
2021/08/08 00:37:24;;;;;;;2.63;1.98;;;17.20;99.90;;;;;;5011964;28;20030;-50
2021/08/08 00:39:50;;;;;;;2.92;1.45;;;17.20;99.90;;;;;;5012183;28;20034;-50
2021/08/08 00:42:15;;;;;;;5.93;1.70;;;17.10;99.90;;;;;;5012198;28;20022;-49
2021/08/08 00:44:41;;;;;;;2.08;1.30;;;17.10;99.90;;;;;;5012154;28;20018;-45
2021/08/08 00:47:06;;;;;;;1.95;1.30;;;17.10;99.90;;;;;;4995090;28;20018;-47
2021/08/08 00:49:35;;;;;;;3.80;1.95;;;17.10;99.90;;;;;;5012336;28;20026;-48
2021/08/08 00:52:01;;;;;;;2.72;1.15;;;17.00;99.90;;;;;;5012151;28;20117;-50
2021/08/08 00:54:26;;;;;;;2.05;1.10;;;17.00;99.90;;;;;;5012187;28;20487;-47
2021/08/08 00:56:52;;;;;;;1.73;1.02;;;17.00;99.90;;;;;;5012138;28;20116;-49
2021/08/08 00:59:17;;;;;;;2.55;1.13;;;17.00;99.90;;;;;;5011919;28;20097;-44
2021/08/08 01:01:46;;;;;;;3.67;1.08;;;17.00;99.90;;;;;;5011664;28;20076;-49
2021/08/08 01:04:17;;;;;;;2.85;0.88;;;16.90;99.90;;;;;;5011373;28;20037;-44
2021/08/08 01:06:51;;;;;;;3.50;1.20;;;16.90;99.90;;;;;;5011227;28;20049;-47
2021/08/08 01:09:17;;;;;;;0.90;0.90;;;16.90;99.90;;;;;;5010193;28;20065;-45
2021/08/08 01:11:43;;;;;;;7.28;1.50;;;16.90;99.90;;;;;;5011263;28;20124;-48
2021/08/08 01:14:08;;;;;;;3.10;1.10;;;16.90;99.90;;;;;;5011331;28;20026;-49
2021/08/08 01:16:35;;;;;;;2.05;1.13;;;16.90;99.90;;;;;;5010029;28;20037;-48
2021/08/08 01:19:03;;;;;;;6.93;1.10;;;16.80;99.90;;;;;;5010804;28;20105;-47
2021/08/08 01:21:31;;;;;;;5.25;1.05;;;16.70;99.90;;;;;;5011068;28;20037;-48
2021/08/08 01:24:02;;;;;;;1.15;1.00;;;16.70;99.90;;;;;;5011105;28;20072;-45
2021/08/08 01:26:30;;;;;;;3.78;1.50;;;16.70;99.90;;;;;;5011178;28;20117;-47
2021/08/08 01:29:00;;;;;;;3.10;1.30;;;16.60;99.90;;;;;;5010757;28;20025;-46
2021/08/08 01:31:26;;;;;;;1.75;1.00;;;16.60;99.90;;;;;;4993494;28;20103;-44
2021/08/08 01:33:51;;;;;;;2.20;1.20;;;16.70;99.90;;;;;;5010937;28;20034;-46
2021/08/08 01:36:18;;;;;;;4.07;1.27;;;16.60;99.90;;;;;;5010785;28;20028;-52
2021/08/08 01:39:02;;;;;;;12.38;1.30;;;16.60;99.90;;;;;;5010830;28;20105;-47
2021/08/08 01:41:32;;;;;;;3.05;1.25;;;16.60;99.90;;;;;;5010823;28;20036;-44
2021/08/08 01:44:00;;;;;;;2.97;1.25;;;16.60;99.90;;;;;;5010922;28;20092;-47
2021/08/08 01:46:27;;;;;;;3.63;1.13;;;16.60;99.90;;;;;;4993199;28;20391;-46
2021/08/08 01:48:55;;;;;;;1.52;1.17;;;16.60;99.90;;;;;;5010467;28;20018;-47
2021/08/08 01:51:22;;;;;;;3.08;1.02;;;16.60;99.90;;;;;;5010858;28;20052;-48
2021/08/08 01:53:47;;;;;;;1.48;1.38;;;16.50;99.90;;;;;;5010776;28;20471;-51
2021/08/08 01:56:13;;;;;;;1.50;1.40;;;16.50;99.90;;;;;;5010737;28;20072;-46
2021/08/08 01:58:39;;;;;;;2.13;1.50;;;16.50;99.90;;;;;;5010519;28;20402;-49
2021/08/08 02:01:05;;;;;;;6.88;1.63;;;16.50;99.90;;;;;;5010662;28;20056;-45
2021/08/08 02:03:38;;;;;;;5.82;2.00;;;16.50;99.90;;;;;;5010909;28;20050;-50
2021/08/08 02:06:06;;;;;;;1.50;1.40;;;16.50;99.90;;;;;;5011074;28;20053;-47
2021/08/08 02:08:32;;;;;;;4.18;1.80;;;16.40;99.90;;;;;;5010647;28;20026;-52
2021/08/08 02:10:57;;;;;;;1.98;1.77;;;16.50;99.90;;;;;;5011220;28;20037;-48
2021/08/08 02:13:23;;;;;;;1.90;1.48;;;16.50;99.90;;;;;;5011055;28;20030;-53
2021/08/08 02:15:49;;;;;;;4.15;1.73;;;16.50;99.90;;;;;;5011333;28;20075;-47
2021/08/08 02:18:16;;;;;;;3.97;2.50;;;16.50;99.90;;;;;;5010564;28;20030;-47
2021/08/08 02:20:43;;;;;;;5.53;2.00;;;16.40;99.90;;;;;;4993380;28;20037;-46
2021/08/08 02:23:08;;;;;;;2.60;1.60;;;16.50;99.90;;;;;;5011217;28;20022;-51
2021/08/08 02:25:35;;;;;;;1.52;1.33;;;16.50;99.90;;;;;;5010948;28;20037;-45
2021/08/08 02:28:00;;;;;;;3.05;1.70;;;16.40;99.90;;;;;;5010370;28;20025;-48
2021/08/08 02:30:26;;;;;;;5.43;2.00;;;16.40;99.90;;;;;;5010513;28;20505;-47
2021/08/08 02:32:51;;;;;;;2.47;1.40;;;16.40;99.90;;;;;;5010432;28;20026;-48
2021/08/08 02:35:17;;;;;;;2.85;2.25;;;16.40;99.90;;;;;;5010440;28;20109;-48
2021/08/08 02:37:42;;;;;;;2.70;1.35;;;16.40;99.90;;;;;;5010194;28;20038;-46
2021/08/08 02:40:09;;;;;;;3.42;1.48;;;16.40;99.90;;;;;;5010285;28;20479;-47
2021/08/08 02:42:34;;;;;;;2.35;1.27;;;16.30;99.90;;;;;;5010441;28;20033;-45
2021/08/08 02:45:00;;;;;;;2.17;1.58;;;16.20;99.90;;;;;;5010363;28;20367;-45
2021/08/08 02:47:29;;;;;;;3.00;1.50;;;16.20;99.90;;;;;;5012259;28;20426;-49
2021/08/08 02:49:54;;;;;;;2.63;1.33;;;16.20;99.90;;;;;;5013864;28;20502;-48
2021/08/08 02:52:20;;;;;;;5.20;1.80;;;16.20;99.90;;;;;;5013819;28;20030;-48
2021/08/08 02:54:45;;;;;;;3.03;1.70;;;16.20;99.90;;;;;;5013699;28;20034;-48
2021/08/08 02:57:11;;;;;;;2.25;1.55;;;16.20;99.90;;;;;;5013431;28;20108;-50
2021/08/08 02:59:36;;;;;;;4.13;1.58;;;16.10;99.90;;;;;;5013367;28;20418;-43
2021/08/08 03:02:03;;;;;;;6.10;1.95;;;16.10;99.90;;;;;;5013615;28;20030;-48
2021/08/08 03:04:29;;;;;;;3.95;2.22;;;16.00;99.90;;;;;;5013695;28;20030;-44
2021/08/08 03:06:54;;;;;;;6.05;1.42;;;16.00;99.90;;;;;;5014320;28;20044;-46
2021/08/08 03:09:20;;;;;;;2.78;1.30;;;16.00;99.90;;;;;;5013492;28;20080;-47
2021/08/08 03:11:45;;;;;;;6.20;1.50;;;16.00;99.90;;;;;;5014164;28;20099;-51
2021/08/08 03:14:15;;;;;;;1.52;1.40;;;16.00;99.90;;;;;;5014281;28;20113;-44
2021/08/08 03:16:42;;;;;;;2.42;1.30;;;16.00;99.90;;;;;;5014055;28;20494;-46
2021/08/08 03:19:09;;;;;;;3.05;1.70;;;16.00;99.90;;;;;;5013033;28;20460;-47
2021/08/08 03:21:34;;;;;;;6.63;1.73;;;16.00;99.90;;;;;;4995638;28;20033;-44
2021/08/08 03:24:00;;;;;;;2.00;1.45;;;16.10;99.90;;;;;;5013511;28;20022;-49
2021/08/08 03:26:27;;;;;;;5.88;1.35;;;16.10;99.90;;;;;;5013761;28;20018;-49
2021/08/08 03:28:52;;;;;;;4.57;1.60;;;16.10;99.90;;;;;;5013153;28;20467;-48
2021/08/08 03:31:19;;;;;;;3.30;1.20;;;16.20;99.90;;;;;;5013411;28;20033;-45
2021/08/08 03:33:44;;;;;;;1.67;1.20;;;16.20;99.90;;;;;;5013312;28;20160;-50
2021/08/08 03:36:11;;;;;;;6.55;1.50;;;16.20;99.90;;;;;;5012999;28;20117;-50
2021/08/08 03:38:37;;;;;;;4.57;1.85;;;16.20;99.90;;;;;;5012656;28;20029;-49
2021/08/08 03:41:03;;;;;;;1.92;1.00;;;16.20;99.90;;;;;;5012808;28;20033;-48
2021/08/08 03:43:28;;;;;;;2.15;1.30;;;16.20;99.90;;;;;;5012965;28;20149;-46
2021/08/08 03:45:54;;;;;;;1.15;1.05;;;16.20;99.90;;;;;;5012858;28;20026;-43
2021/08/08 03:48:19;;;;;;;2.60;0.98;;;16.20;99.90;;;;;;5012645;28;20125;-50
2021/08/08 03:50:44;;;;;;;4.78;1.60;;;16.20;99.90;;;;;;5012942;28;20032;-50
2021/08/08 03:53:10;;;;;;;1.45;1.20;;;16.10;99.90;;;;;;5012900;28;20105;-45
2021/08/08 03:55:35;;;;;;;3.60;2.50;;;16.10;99.90;;;;;;5012920;28;20114;-48
2021/08/08 03:58:01;;;;;;;3.17;1.33;;;16.10;99.90;;;;;;5011640;28;20387;-49
2021/08/08 04:00:27;;;;;;;3.55;1.70;;;16.10;99.90;;;;;;5012427;28;20030;-53
2021/08/08 04:02:52;;;;;;;1.30;1.02;;;16.00;99.90;;;;;;5012755;28;20076;-48
2021/08/08 04:05:18;;;;;;;1.73;1.30;;;15.90;99.90;;;;;;5012537;28;20025;-44
2021/08/08 04:07:43;;;;;;;1.85;1.60;;;15.80;99.90;;;;;;5013151;28;20072;-46
2021/08/08 04:10:09;;;;;;;1.63;1.50;;;15.80;99.90;;;;;;5012425;28;20060;-49
2021/08/08 04:12:35;;;;;;;9.68;2.28;;;15.80;99.90;;;;;;5012208;28;20462;-50
2021/08/08 04:15:02;;;;;;;5.10;1.73;;;15.70;99.90;;;;;;5012290;28;20061;-48
2021/08/08 04:17:28;;;;;;;5.63;2.38;;;15.60;99.90;;;;;;5012144;28;20506;-49
2021/08/08 04:19:54;;;;;;;4.63;1.60;;;15.60;99.90;;;;;;5012029;28;20034;-44
2021/08/08 04:22:19;;;;;;;6.18;1.70;;;15.50;99.90;;;;;;5012120;28;20032;-48
2021/08/08 04:24:45;;;;;;;4.32;1.40;;;15.50;99.90;;;;;;5012101;28;20022;-47
2021/08/08 04:27:13;;;;;;;3.72;1.42;;;15.50;99.90;;;;;;5011799;28;20061;-50
2021/08/08 04:29:38;;;;;;;4.95;1.70;;;15.40;99.90;;;;;;4994266;28;20052;-44
2021/08/08 04:32:04;;;;;;;2.47;1.45;;;15.40;99.90;;;;;;5011994;28;20083;-47
2021/08/08 04:34:31;;;;;;;1.38;1.20;;;15.40;99.90;;;;;;5011889;28;20022;-50
2021/08/08 04:37:00;;;;;;;4.00;1.50;;;15.30;99.90;;;;;;5011816;28;20387;-45
2021/08/08 04:39:26;;;;;;;3.70;1.40;;;15.30;99.90;;;;;;5011592;28;20049;-55
2021/08/08 04:41:54;;;;;;;2.83;1.63;;;15.30;99.90;;;;;;5011709;28;20088;-48
2021/08/08 04:44:20;;;;;;;5.68;1.60;;;15.30;99.90;;;;;;5011733;28;20391;-48
2021/08/08 04:46:47;;;;;;;9.00;1.70;;;15.20;99.90;;;;;;5011704;28;20030;-49
2021/08/08 04:49:12;;;;;;;2.72;1.48;;;15.30;99.90;;;;;;4993774;28;20121;-47
2021/08/08 04:51:38;;;;;;;4.30;1.77;;;15.30;99.90;;;;;;5011629;28;20116;-47
2021/08/08 04:54:03;;;;;;;4.93;1.60;;;15.30;99.90;;;;;;5011542;28;20057;-49
2021/08/08 04:56:29;;;;;;;2.78;1.30;;;15.40;99.90;;;;;;5011466;28;20030;-45
2021/08/08 04:58:54;;;;;;;4.20;1.60;;;15.40;99.90;;;;;;5011238;28;20030;-46
2021/08/08 05:01:20;;;;;;;8.07;1.60;;;15.50;99.90;;;;;;5011518;28;20042;-45
2021/08/08 05:03:45;;;;;;;2.35;1.35;;;15.50;99.90;;;;;;5010269;28;20022;-44
2021/08/08 05:06:11;;;;;;;2.20;1.20;;;15.60;99.90;;;;;;5011204;28;20551;-45
2021/08/08 05:08:36;;;;;;;4.93;1.58;;;15.60;99.90;;;;;;5011038;28;20198;-49
2021/08/08 05:11:02;;;;;;;3.55;1.23;;;15.70;99.90;;;;;;5011012;28;20026;-47
2021/08/08 05:13:29;;;;;;;1.30;1.00;;;15.70;99.90;;;;;;4993512;28;20072;-44
2021/08/08 05:15:55;;;;;;;4.10;1.88;;;15.80;99.90;;;;;;5011285;28;20615;-47
2021/08/08 05:18:20;;;;;;;5.07;1.17;;;15.80;99.90;;;;;;5010803;28;20026;-47
2021/08/08 05:20:46;;;;;;;3.53;1.83;;;15.90;99.90;;;;;;5011194;28;20112;-47
2021/08/08 05:23:11;;;;;;;3.03;1.20;;;15.90;99.90;;;;;;5011090;28;20049;-44
2021/08/08 05:25:37;;;;;;;2.28;1.10;;;15.90;99.90;;;;;;5011527;28;20550;-49
2021/08/08 05:28:03;;;;;;;2.00;1.13;;;15.90;99.90;;;;;;5010706;28;20072;-44
2021/08/08 05:30:28;;;;;;;3.53;1.20;;;16.00;99.90;;;;;;5011201;28;20065;-49
2021/08/08 05:32:54;;;;;;;3.03;1.10;;;16.00;99.90;;;;;;5011173;28;20104;-48
2021/08/08 05:35:19;;;;;;;4.43;1.45;;;16.10;99.90;;;;;;5010960;28;20368;-48
2021/08/08 05:37:45;;;;;;;4.20;1.50;;;16.20;99.90;;;;;;5010837;28;20018;-48
2021/08/08 05:40:11;;;;;;;5.85;2.05;;;16.20;99.90;;;;;;5010874;28;20034;-45
2021/08/08 05:42:36;;;;;;;3.20;1.10;;;16.20;99.90;;;;;;5011048;28;20108;-47
2021/08/08 05:45:04;;;;;;;3.85;1.02;;;16.30;99.90;;;;;;5011159;28;20109;-45
2021/08/08 05:47:30;;;;;;;4.28;1.50;;;16.30;99.90;;;;;;5010475;28;20080;-49
2021/08/08 05:49:55;;;;;;;2.13;0.90;;;16.40;99.90;;;;;;4993183;28;20029;-47
2021/08/08 05:52:21;;;;;;;3.95;1.05;;;16.50;99.90;;;;;;5010732;28;20041;-46
2021/08/08 05:54:46;;;;;;;4.78;1.40;;;16.50;99.90;;;;;;5010606;28;20030;-46
2021/08/08 05:57:12;;;;;;;1.40;1.30;;;16.60;99.90;;;;;;5009101;28;20424;-48
2021/08/08 05:59:37;;;;;;;5.10;1.17;;;16.70;99.90;;;;;;5010467;28;20022;-49
2021/08/08 06:02:03;;;;;;;3.13;1.17;;;16.80;99.90;;;;;;5010618;28;20542;-47
2021/08/08 06:04:28;;;;;;;3.33;1.30;;;17.00;99.90;;;;;;5010539;28;20029;-49
2021/08/08 06:06:54;;;;;;;2.45;1.45;;;17.10;99.90;;;;;;5010305;28;20038;-49
2021/08/08 06:09:20;;;;;;;4.03;1.25;;;17.10;99.90;;;;;;5010263;28;20104;-48
2021/08/08 06:11:45;;;;;;;2.97;1.17;;;17.00;99.90;;;;;;5010518;28;20030;-47
2021/08/08 06:14:10;;;;;;;4.32;1.23;;;17.00;99.90;;;;;;5010510;28;20406;-46
2021/08/08 06:16:36;;;;;;;1.58;1.30;;;16.90;99.90;;;;;;5010806;28;20080;-50
2021/08/08 06:19:02;;;;;;;5.32;1.48;;;16.90;99.90;;;;;;5010189;28;20104;-44
2021/08/08 06:21:27;;;;;;;3.42;1.35;;;16.90;99.90;;;;;;5010993;28;20040;-46
2021/08/08 06:23:53;;;;;;;3.40;1.42;;;16.90;99.90;;;;;;4996519;28;20027;-45
2021/08/08 06:26:18;;;;;;;9.15;1.92;;;17.00;99.90;;;;;;5014522;28;20029;-49
2021/08/08 06:28:44;;;;;;;6.53;1.98;;;17.10;99.90;;;;;;5014154;28;20032;-47
2021/08/08 06:31:09;;;;;;;1.52;1.33;;;17.10;99.90;;;;;;5014430;28;20080;-51
2021/08/08 06:33:35;;;;;;;2.10;1.42;;;17.10;99.90;;;;;;5014404;28;20026;-46
2021/08/08 06:36:00;;;;;;;4.68;1.40;;;17.20;99.90;;;;;;5012970;28;20060;-51
2021/08/08 06:38:26;;;;;;;2.97;1.52;;;17.30;99.90;;;;;;5013908;28;20033;-48
2021/08/08 06:40:51;;;;;;;2.45;1.45;;;17.30;99.90;;;;;;5014196;28;20049;-44
2021/08/08 06:43:17;;;;;;;4.38;1.33;;;17.40;99.90;;;;;;5014023;28;20029;-44
2021/08/08 06:45:42;;;;;;;5.78;1.40;;;17.40;99.90;;;;;;5014014;28;20045;-48
2021/08/08 06:48:08;;;;;;;4.78;1.48;;;17.40;99.90;;;;;;5013605;28;20033;-46
2021/08/08 06:50:34;;;;;;;4.72;1.75;;;17.50;99.90;;;;;;5013868;28;20022;-46
2021/08/08 06:52:59;;;;;;;3.63;1.35;;;17.50;99.90;;;;;;5013967;28;20044;-46
2021/08/08 06:55:25;;;;;;;4.43;1.60;;;17.50;99.90;;;;;;5012370;28;20065;-45
2021/08/08 06:57:51;;;;;;;6.10;2.15;;;17.60;99.90;;;;;;5013457;28;20033;-44
2021/08/08 07:00:17;;;;;;;3.95;1.52;;;17.60;99.90;;;;;;4995763;28;20026;-47
2021/08/08 07:02:42;;;;;;;11.70;2.20;;;17.60;99.90;;;;;;5013491;28;20037;-50
2021/08/08 07:05:09;;;;;;;6.22;1.60;;;17.70;99.90;;;;;;5012786;28;20113;-49
2021/08/08 07:07:34;;;;;;;4.13;2.08;;;17.60;99.90;;;;;;5012529;28;20038;-46
2021/08/08 07:10:00;;;;;;;3.80;2.25;;;17.70;99.90;;;;;;5013157;28;20051;-47
2021/08/08 07:12:26;;;;;;;8.85;2.30;;;17.90;99.90;;;;;;5013407;28;20037;-50
2021/08/08 07:14:51;;;;;;;7.25;2.10;;;17.90;99.90;;;;;;5012634;28;20422;-46
2021/08/08 07:17:17;;;;;;;3.47;1.90;;;18.00;99.90;;;;;;5013045;28;20395;-42
2021/08/08 07:19:43;;;;;;;4.25;2.08;;;18.10;99.90;;;;;;5013046;28;20026;-52
2021/08/08 07:22:09;;;;;;;5.22;2.33;;;18.30;99.90;;;;;;5012610;28;20100;-49
2021/08/08 07:24:34;;;;;;;5.45;2.42;;;18.40;99.90;;;;;;5012718;28;20025;-51
2021/08/08 07:27:00;;;;;;;7.18;2.33;;;18.50;99.90;;;;;;5012757;28;20414;-52
2021/08/08 07:29:26;;;;;;;8.35;2.92;;;18.50;99.90;;;;;;5013093;28;20026;-49
2021/08/08 07:31:52;;;;;;;3.80;1.88;;;18.50;99.90;;;;;;4995617;28;20026;-48
2021/08/08 07:34:18;;;;;;;4.13;2.25;;;18.40;99.90;;;;;;5013298;28;20026;-48
2021/08/08 07:36:43;;;;;;;9.73;2.78;;;18.50;99.90;;;;;;5013252;28;20041;-48
2021/08/08 07:39:09;;;;;;;5.20;2.10;;;18.40;99.80;;;;;;5013168;28;20116;-48
2021/08/08 07:41:34;;;;;;;7.47;2.10;;;18.40;99.80;;;;;;5013785;28;20033;-49
2021/08/08 07:44:00;;;;;;;7.65;2.00;;;18.30;99.80;;;;;;4995881;28;20034;-48
2021/08/08 07:46:25;;;;;;;1.58;1.48;;;18.30;99.70;;;;;;5013815;28;20566;-46
2021/08/08 07:48:51;;;;;;;16.17;2.80;;;18.40;99.50;;;;;;5013221;28;20112;-47
2021/08/08 07:51:17;;;;;;;9.02;1.65;;;18.40;99.90;;;;;;5013111;28;20022;-52
2021/08/08 07:53:42;;;;;;;11.60;2.45;;;18.60;99.50;;;;;;5012704;28;20026;-53
2021/08/08 07:56:08;;;;;;;5.78;1.63;;;18.60;99.30;;;;;;5011936;28;20590;-48
2021/08/08 07:58:34;;;;;;;3.42;1.77;;;18.80;99.00;;;;;;5011311;28;20034;-48
2021/08/08 08:00:59;;;;;;;9.65;2.05;;;19.00;99.00;;;;;;5012385;28;20110;-50
2021/08/08 08:03:24;;;;;;;6.45;2.65;;;19.40;98.00;;;;;;5012194;28;20026;-52
2021/08/08 08:05:50;;;;;;;5.47;1.77;;;19.70;96.70;;;;;;4996419;28;20026;-45
2021/08/08 08:08:15;;;;;;;3.15;1.48;;;20.10;96.60;;;;;;5012113;28;20108;-50
2021/08/08 08:10:41;;;;;;;4.10;1.60;;;20.80;95.80;;;;;;5012248;28;20490;-51
2021/08/08 08:13:07;;;;;;;4.53;1.65;;;21.00;94.70;;;;;;5012250;28;20040;-49
2021/08/08 08:15:32;;;;;;;5.45;2.25;;;21.50;94.70;;;;;;5011806;28;20101;-46
2021/08/08 08:17:58;;;;;;;8.13;2.38;;;21.60;93.70;;;;;;5011593;28;20034;-48
2021/08/08 08:20:24;;;;;;;2.45;1.23;;;21.30;94.40;;;;;;5011661;28;20030;-49
2021/08/08 08:22:50;;;;;;;4.43;1.60;;;20.70;94.80;;;;;;5011425;28;20112;-52
2021/08/08 08:25:17;;;;;;;4.18;2.05;;;20.40;95.10;;;;;;4994290;28;20029;-51
2021/08/08 08:27:43;;;;;;;5.53;2.10;;;20.00;95.70;;;;;;5011234;28;20044;-47
2021/08/08 08:30:09;;;;;;;5.15;1.70;;;19.70;96.30;;;;;;5010981;28;20487;-51
2021/08/08 08:32:34;;;;;;;3.65;1.70;;;20.00;96.70;;;;;;5011379;28;20037;-50
2021/08/08 08:35:02;;;;;;;7.60;1.83;;;20.10;95.60;;;;;;5011654;28;20025;-51
2021/08/08 08:37:28;;;;;;;6.68;2.05;;;20.40;95.80;;;;;;5011624;28;20184;-55
2021/08/08 08:39:54;;;;;;;2.28;1.25;;;20.50;95.30;;;;;;5011507;28;20056;-51
2021/08/08 08:42:21;;;;;;;2.47;1.02;;;20.40;94.50;;;;;;5011611;28;20113;-53
2021/08/08 08:44:47;;;;;;;5.18;1.88;;;20.30;94.70;;;;;;5009816;28;20145;-50
2021/08/08 08:47:14;;;;;;;5.70;2.42;;;20.00;95.50;;;;;;5011503;28;20025;-47
2021/08/08 08:49:48;;;;;;;2.10;1.27;;;19.90;95.90;;;;;;5011422;28;20026;-50
2021/08/08 08:52:21;;;;;;;4.47;1.50;;;20.00;95.70;;;;;;5010909;28;20021;-51
2021/08/08 08:54:47;;;;;;;4.70;1.60;;;20.20;95.80;;;;;;5010600;28;20061;-51
2021/08/08 08:57:14;;;;;;;3.25;1.70;;;20.30;95.90;;;;;;5010800;28;20565;-47
2021/08/08 08:59:40;;;;;;;3.80;1.75;;;20.40;95.60;;;;;;5010147;28;20414;-49
2021/08/08 09:02:06;;;;;;;6.78;2.10;;;20.40;95.20;;;;;;5010190;28;20608;-47
2021/08/08 09:04:32;;;;;;;5.97;1.70;;;20.40;94.90;;;;;;5011455;28;20100;-49
2021/08/08 09:06:58;;;;;;;3.17;1.65;;;20.30;94.80;;;;;;5011271;28;20112;-47
2021/08/08 09:09:24;;;;;;;6.25;1.60;;;20.30;95.00;;;;;;5011298;28;20030;-52
2021/08/08 09:11:51;;;;;;;6.38;1.88;;;20.10;95.60;;;;;;5011231;28;20030;-47
2021/08/08 09:14:16;;;;;;;4.22;2.00;;;20.00;95.90;;;;;;5007087;28;20154;-50
2021/08/08 09:16:50;;;;;;;3.38;1.60;;;19.90;95.70;;;;;;5009842;28;20109;-48
2021/08/08 09:19:27;;;;;;;7.97;1.83;;;19.80;95.70;;;;;;5009644;28;20076;-48
2021/08/08 09:21:53;;;;;;;4.68;1.42;;;19.80;95.60;;;;;;5008788;28;20049;-51
2021/08/08 09:24:28;;;;;;;6.22;1.80;;;20.00;95.40;;;;;;4997699;28;20084;-50
2021/08/08 09:27:05;;;;;;;2.88;1.48;;;20.40;95.40;;;;;;5009108;28;20018;-49
2021/08/08 09:29:30;;;;;;;12.20;6.20;;;20.80;95.00;;;;;;5009177;28;20446;-48
2021/08/08 09:31:56;;;;;;;5.47;2.30;;;20.90;94.90;;;;;;5009049;28;20058;-48
2021/08/08 09:34:22;;;;;;;6.25;1.60;;;21.10;94.90;;;;;;4990437;28;20034;-49
2021/08/08 09:36:48;;;;;;;3.17;1.50;;;21.30;93.90;;;;;;5004316;28;20398;-51
2021/08/08 09:39:29;;;;;;;7.93;2.22;;;21.10;93.90;;;;;;5009422;28;20034;-51
2021/08/08 09:42:15;;;;;;;4.10;2.00;;;20.80;94.40;;;;;;5009175;28;20386;-49
2021/08/08 09:44:57;;;;;;;3.83;1.42;;;20.60;95.30;;;;;;4991839;28;20088;-50
2021/08/08 09:47:36;;;;;;;4.47;2.25;;;20.40;95.10;;;;;;5009240;28;20048;-47
2021/08/08 09:50:05;;;;;;;5.68;1.70;;;20.30;95.70;;;;;;5009963;28;20033;-47
2021/08/08 09:52:35;;;;;;;8.13;2.45;;;20.10;95.80;;;;;;5009553;28;20503;-46
2021/08/08 09:55:01;;;;;;;4.18;2.13;;;20.00;96.30;;;;;;5010125;28;20482;-50
2021/08/08 09:57:40;;;;;;;3.22;1.70;;;20.00;96.50;;;;;;5011669;28;20053;-51
2021/08/08 10:00:07;;;;;;;8.02;2.08;;;19.90;96.60;;;;;;5012735;28;20048;-47
2021/08/08 10:02:33;;;;;;;4.13;1.58;;;19.90;96.50;;;;;;5001486;28;20026;-52
2021/08/08 10:04:59;;;;;;;3.90;1.40;;;19.90;96.60;;;;;;5014439;28;20036;-56
2021/08/08 10:07:27;;;;;;;9.27;2.05;;;20.00;96.30;;;;;;5029493;23;20563;-50
2021/08/08 10:09:56;;;;;;;5.38;1.27;;;20.10;95.30;;;;;;4993261;28;20026;-53
2021/08/08 10:12:43;;;;;;;7.72;2.28;;;20.30;95.50;;;;;;4976945;28;20391;-47
2021/08/08 10:15:10;;;;;;;3.17;1.30;;;20.30;95.30;;;;;;4994665;28;20026;-51
2021/08/08 10:17:38;;;;;;;7.85;1.80;;;20.30;95.00;;;;;;4994020;28;20026;-49
2021/08/08 10:20:05;;;;;;;5.07;1.50;;;20.40;94.90;;;;;;4976176;28;20022;-45
2021/08/08 10:22:33;;;;;;;6.53;1.33;;;20.40;95.10;;;;;;4994322;28;20118;-52
2021/08/08 10:24:59;;;;;;;4.15;1.20;;;20.40;95.80;;;;;;4994662;28;20030;-51
2021/08/08 10:27:26;;;;;;;5.38;1.70;;;20.50;94.40;;;;;;4991916;28;20080;-45
2021/08/08 10:29:58;;;;;;;6.15;1.50;;;20.40;94.20;;;;;;4976909;28;20022;-47
2021/08/08 10:32:25;;;;;;;6.57;2.00;;;20.40;94.80;;;;;;4977093;28;20030;-52
2021/08/08 10:34:50;;;;;;;4.45;1.35;;;20.40;94.40;;;;;;4977056;28;20522;-48
2021/08/08 10:37:20;;;;;;;5.10;1.67;;;20.40;94.80;;;;;;4993913;28;20069;-48
2021/08/08 10:39:46;;;;;;;4.93;2.08;;;20.50;95.00;;;;;;4994390;28;20109;-51
2021/08/08 10:42:12;;;;;;;5.45;1.42;;;20.50;94.40;;;;;;4994390;28;20484;-49
2021/08/08 10:44:48;;;;;;;3.05;1.30;;;20.60;94.60;;;;;;4997096;28;20033;-52
2021/08/08 10:47:31;;;;;;;4.15;1.40;;;20.70;95.30;;;;;;4997103;28;20061;-50
2021/08/08 10:50:11;;;;;;;4.20;1.20;;;20.70;93.90;;;;;;4996256;28;20030;-47
2021/08/08 10:52:39;;;;;;;6.68;1.35;;;20.60;93.40;;;;;;4993391;28;20122;-47
2021/08/08 10:55:05;;;;;;;4.47;2.00;;;20.60;94.10;;;;;;4993860;28;20042;-48
2021/08/08 10:57:42;;;;;;;4.00;1.20;;;20.60;94.10;;;;;;4975961;28;20471;-48
2021/08/08 11:00:13;;;;;;;7.25;1.63;;;20.60;93.90;;;;;;4993899;28;20487;-48
2021/08/08 11:02:39;;;;;;;3.50;1.52;;;20.60;94.50;;;;;;4993865;28;20030;-50
2021/08/08 11:05:15;;;;;;;5.97;1.88;;;20.70;94.00;;;;;;4993602;28;20058;-48
2021/08/08 11:07:43;;;;;;;6.55;1.48;;;20.70;93.70;;;;;;4992910;28;20571;-47
2021/08/08 11:10:10;;;;;;;2.95;1.40;;;20.80;94.00;;;;;;4993493;28;20156;-49
2021/08/08 11:12:37;;;;;;;4.40;1.73;;;21.00;93.40;;;;;;4993907;28;20022;-51
2021/08/08 11:15:05;;;;;;;4.25;1.60;;;21.00;93.60;;;;;;4993838;28;20058;-51
2021/08/08 11:17:31;;;;;;;3.80;1.77;;;21.00;93.80;;;;;;4993198;28;20027;-51
2021/08/08 11:19:57;;;;;;;5.90;1.67;;;21.20;93.80;;;;;;4993338;28;20081;-50
2021/08/08 11:22:23;;;;;;;4.57;1.48;;;21.30;93.50;;;;;;4993653;28;20546;-51
2021/08/08 11:25:07;;;;;;;4.10;1.15;;;21.30;92.60;;;;;;4976010;28;20022;-50
2021/08/08 11:27:39;;;;;;;5.47;1.52;;;21.20;93.00;;;;;;4992240;28;20030;-50
2021/08/08 11:30:16;;;;;;;3.10;1.42;;;21.00;93.40;;;;;;4991840;28;20022;-48
2021/08/08 11:32:42;;;;;;;5.38;1.63;;;21.00;93.60;;;;;;4974121;28;20030;-50
2021/08/08 11:35:13;;;;;;;6.28;1.42;;;20.80;93.30;;;;;;4992011;28;20038;-51
2021/08/08 11:37:45;;;;;;;8.70;1.98;;;20.80;93.40;;;;;;4992715;28;20114;-55
2021/08/08 11:40:30;;;;;;;4.22;1.55;;;20.80;94.30;;;;;;4993218;28;20077;-55
2021/08/08 11:43:04;;;;;;;8.00;1.45;;;20.80;93.80;;;;;;4993562;28;20046;-50
2021/08/08 11:45:35;;;;;;;6.13;1.70;;;20.90;92.90;;;;;;4975854;28;20030;-48
2021/08/08 11:48:01;;;;;;;3.33;1.27;;;21.00;92.50;;;;;;4993028;28;20023;-55
2021/08/08 11:50:28;;;;;;;3.08;1.50;;;21.00;92.80;;;;;;4992666;28;20113;-54
2021/08/08 11:53:03;;;;;;;6.60;1.35;;;21.00;92.90;;;;;;4975565;28;20121;-50
2021/08/08 11:55:31;;;;;;;4.30;1.73;;;21.00;92.60;;;;;;4975889;28;20027;-50
2021/08/08 11:58:10;;;;;;;5.88;1.60;;;21.00;92.90;;;;;;4992511;28;20030;-48
2021/08/08 12:00:40;;;;;;;3.45;1.30;;;21.20;92.90;;;;;;4992797;28;20109;-49
2021/08/08 12:03:07;;;;;;;7.72;1.25;;;21.30;92.30;;;;;;4992484;28;20080;-48
2021/08/08 12:05:37;;;;;;;4.47;1.38;;;21.30;91.40;;;;;;4975322;28;20384;-49
2021/08/08 12:08:07;;;;;;;4.70;1.30;;;21.40;91.00;;;;;;4992393;28;20030;-50
2021/08/08 12:10:37;;;;;;;5.50;1.73;;;21.50;91.50;;;;;;4992407;28;20030;-50
2021/08/08 12:13:17;;;;;;;3.15;1.17;;;21.40;91.50;;;;;;4992404;28;20042;-51
2021/08/08 12:15:43;;;;;;;3.28;1.20;;;21.40;91.90;;;;;;4992562;28;20026;-50
2021/08/08 12:18:09;;;;;;;2.58;1.20;;;21.50;91.20;;;;;;4992157;28;20029;-44
2021/08/08 12:20:40;;;;;;;2.25;1.48;;;21.50;91.40;;;;;;4991262;28;20022;-48
2021/08/08 12:23:12;;;;;;;2.08;1.00;;;21.60;90.40;;;;;;4992722;28;20492;-51
2021/08/08 12:25:38;;;;;;;3.97;1.25;;;21.60;90.60;;;;;;4992511;28;20034;-52
2021/08/08 12:28:04;;;;;;;1.38;0.80;;;21.50;90.40;;;;;;4992124;28;20030;-50
2021/08/08 12:30:31;;;;;;;3.78;1.15;;;21.50;90.90;;;;;;4991896;28;20034;-50
2021/08/08 12:33:08;;;;;;;2.67;1.20;;;21.50;90.40;;;;;;4992029;28;20034;-48
2021/08/08 12:35:41;;;;;;;1.77;0.90;;;21.50;90.40;;;;;;4992157;28;20512;-51
2021/08/08 12:38:09;;;;;;;7.00;1.40;;;21.40;90.00;;;;;;4991654;28;20031;-48
2021/08/08 12:40:55;;;;;;;6.47;1.40;;;21.50;90.20;;;;;;4991976;28;20036;-51
2021/08/08 12:43:26;;;;;;;3.97;1.40;;;21.40;90.90;;;;;;4991337;28;20038;-53
2021/08/08 12:45:53;;;;;;;5.63;1.27;;;21.50;90.20;;;;;;4992021;28;20391;-53